sensor_id;sensor_type;location;lat;lon;timestamp;P1;durP1;ratioP1;P2;durP2;ratioP2
46006;SDS011;31738;50.188;8.524;2023-09-19T00:01:57;10.68;;;4.10;;
46006;SDS011;31738;50.188;8.524;2023-09-19T00:04:22;9.00;;;4.07;;
46006;SDS011;31738;50.188;8.524;2023-09-19T00:06:54;9.50;;;4.25;;
46006;SDS011;31738;50.188;8.524;2023-09-19T00:09:19;6.97;;;4.18;;
46006;SDS011;31738;50.188;8.524;2023-09-19T00:11:45;7.60;;;4.30;;
46006;SDS011;31738;50.188;8.524;2023-09-19T00:14:12;9.82;;;4.93;;
46006;SDS011;31738;50.188;8.524;2023-09-19T00:16:39;9.00;;;4.72;;
46006;SDS011;31738;50.188;8.524;2023-09-19T00:19:06;9.07;;;5.20;;
46006;SDS011;31738;50.188;8.524;2023-09-19T00:21:32;7.03;;;4.50;;
46006;SDS011;31738;50.188;8.524;2023-09-19T00:23:58;11.43;;;5.03;;
46006;SDS011;31738;50.188;8.524;2023-09-19T00:26:23;11.13;;;5.00;;
46006;SDS011;31738;50.188;8.524;2023-09-19T00:28:51;9.05;;;5.00;;
46006;SDS011;31738;50.188;8.524;2023-09-19T00:31:18;8.23;;;4.97;;
46006;SDS011;31738;50.188;8.524;2023-09-19T00:33:43;9.88;;;5.40;;
46006;SDS011;31738;50.188;8.524;2023-09-19T00:36:08;9.48;;;5.30;;
46006;SDS011;31738;50.188;8.524;2023-09-19T00:38:34;7.93;;;5.68;;
46006;SDS011;31738;50.188;8.524;2023-09-19T00:40:59;10.52;;;6.15;;
46006;SDS011;31738;50.188;8.524;2023-09-19T00:43:25;9.77;;;6.15;;
46006;SDS011;31738;50.188;8.524;2023-09-19T00:45:53;8.77;;;5.78;;
46006;SDS011;31738;50.188;8.524;2023-09-19T00:48:20;13.43;;;6.05;;
46006;SDS011;31738;50.188;8.524;2023-09-19T00:50:47;11.02;;;5.43;;
46006;SDS011;31738;50.188;8.524;2023-09-19T00:53:15;9.57;;;5.60;;
46006;SDS011;31738;50.188;8.524;2023-09-19T00:55:44;8.48;;;5.03;;
46006;SDS011;31738;50.188;8.524;2023-09-19T00:58:10;8.30;;;5.50;;
46006;SDS011;31738;50.188;8.524;2023-09-19T01:00:36;8.75;;;5.28;;
46006;SDS011;31738;50.188;8.524;2023-09-19T01:03:03;7.68;;;4.93;;
46006;SDS011;31738;50.188;8.524;2023-09-19T01:05:29;8.30;;;4.95;;
46006;SDS011;31738;50.188;8.524;2023-09-19T01:07:55;8.02;;;5.00;;
46006;SDS011;31738;50.188;8.524;2023-09-19T01:10:21;7.30;;;4.65;;
46006;SDS011;31738;50.188;8.524;2023-09-19T01:25:50;6.68;;;4.20;;
46006;SDS011;31738;50.188;8.524;2023-09-19T01:31:09;6.22;;;4.13;;
46006;SDS011;31738;50.188;8.524;2023-09-19T01:36:28;5.55;;;4.10;;
46006;SDS011;31738;50.188;8.524;2023-09-19T01:38:56;9.57;;;4.03;;
46006;SDS011;31738;50.188;8.524;2023-09-19T01:41:26;8.15;;;4.25;;
46006;SDS011;31738;50.188;8.524;2023-09-19T01:44:01;5.72;;;4.05;;
46006;SDS011;31738;50.188;8.524;2023-09-19T01:46:33;7.13;;;4.68;;
46006;SDS011;31738;50.188;8.524;2023-09-19T01:51:56;5.72;;;3.72;;
46006;SDS011;31738;50.188;8.524;2023-09-19T01:54:30;8.40;;;4.15;;
46006;SDS011;31738;50.188;8.524;2023-09-19T01:59:41;11.75;;;4.38;;
46006;SDS011;31738;50.188;8.524;2023-09-19T02:02:13;6.32;;;3.42;;
46006;SDS011;31738;50.188;8.524;2023-09-19T02:04:43;6.85;;;3.70;;
46006;SDS011;31738;50.188;8.524;2023-09-19T02:07:08;5.53;;;3.50;;
46006;SDS011;31738;50.188;8.524;2023-09-19T02:12:11;5.55;;;3.25;;
46006;SDS011;31738;50.188;8.524;2023-09-19T02:14:36;4.63;;;3.17;;
46006;SDS011;31738;50.188;8.524;2023-09-19T02:17:03;11.35;;;4.07;;
46006;SDS011;31738;50.188;8.524;2023-09-19T02:19:32;5.85;;;3.40;;
46006;SDS011;31738;50.188;8.524;2023-09-19T02:21:59;5.68;;;3.33;;
46006;SDS011;31738;50.188;8.524;2023-09-19T02:24:28;4.97;;;2.80;;
46006;SDS011;31738;50.188;8.524;2023-09-19T02:26:57;6.07;;;3.38;;
46006;SDS011;31738;50.188;8.524;2023-09-19T02:29:30;4.35;;;3.10;;
46006;SDS011;31738;50.188;8.524;2023-09-19T02:32:13;4.15;;;2.75;;
46006;SDS011;31738;50.188;8.524;2023-09-19T02:34:47;4.63;;;2.80;;
46006;SDS011;31738;50.188;8.524;2023-09-19T02:37:16;5.45;;;3.13;;
46006;SDS011;31738;50.188;8.524;2023-09-19T02:39:50;4.70;;;3.27;;
46006;SDS011;31738;50.188;8.524;2023-09-19T02:42:32;6.43;;;2.97;;
46006;SDS011;31738;50.188;8.524;2023-09-19T02:45:05;4.70;;;2.85;;
46006;SDS011;31738;50.188;8.524;2023-09-19T02:47:42;5.75;;;2.83;;
46006;SDS011;31738;50.188;8.524;2023-09-19T02:50:14;9.65;;;2.67;;
46006;SDS011;31738;50.188;8.524;2023-09-19T02:52:51;5.70;;;3.10;;
46006;SDS011;31738;50.188;8.524;2023-09-19T02:55:17;3.25;;;2.80;;
46006;SDS011;31738;50.188;8.524;2023-09-19T02:57:48;7.38;;;3.33;;
46006;SDS011;31738;50.188;8.524;2023-09-19T03:00:20;7.00;;;3.28;;
46006;SDS011;31738;50.188;8.524;2023-09-19T03:02:51;5.25;;;2.75;;
46006;SDS011;31738;50.188;8.524;2023-09-19T03:05:34;3.58;;;2.78;;
46006;SDS011;31738;50.188;8.524;2023-09-19T03:08:00;5.85;;;3.50;;
46006;SDS011;31738;50.188;8.524;2023-09-19T03:10:26;5.15;;;3.28;;
46006;SDS011;31738;50.188;8.524;2023-09-19T03:12:53;4.18;;;3.10;;
46006;SDS011;31738;50.188;8.524;2023-09-19T03:15:31;8.75;;;3.47;;
46006;SDS011;31738;50.188;8.524;2023-09-19T03:17:57;5.80;;;3.75;;
46006;SDS011;31738;50.188;8.524;2023-09-19T03:20:27;6.68;;;3.38;;
46006;SDS011;31738;50.188;8.524;2023-09-19T03:22:56;8.00;;;3.58;;
46006;SDS011;31738;50.188;8.524;2023-09-19T03:25:28;6.45;;;3.40;;
46006;SDS011;31738;50.188;8.524;2023-09-19T03:27:55;5.32;;;3.38;;
46006;SDS011;31738;50.188;8.524;2023-09-19T03:30:41;6.80;;;3.25;;
46006;SDS011;31738;50.188;8.524;2023-09-19T03:33:07;4.63;;;3.35;;
46006;SDS011;31738;50.188;8.524;2023-09-19T03:35:42;5.43;;;3.38;;
46006;SDS011;31738;50.188;8.524;2023-09-19T03:38:17;6.43;;;3.55;;
46006;SDS011;31738;50.188;8.524;2023-09-19T03:40:43;5.55;;;3.15;;
46006;SDS011;31738;50.188;8.524;2023-09-19T03:43:15;4.82;;;3.38;;
46006;SDS011;31738;50.188;8.524;2023-09-19T03:45:45;5.82;;;3.03;;
46006;SDS011;31738;50.188;8.524;2023-09-19T03:48:27;5.93;;;3.65;;
46006;SDS011;31738;50.188;8.524;2023-09-19T03:50:53;7.55;;;3.88;;
46006;SDS011;31738;50.188;8.524;2023-09-19T03:53:25;7.28;;;4.10;;
46006;SDS011;31738;50.188;8.524;2023-09-19T03:55:56;9.05;;;4.38;;
46006;SDS011;31738;50.188;8.524;2023-09-19T03:58:22;8.32;;;4.95;;
46006;SDS011;31738;50.188;8.524;2023-09-19T04:00:54;8.07;;;5.07;;
46006;SDS011;31738;50.188;8.524;2023-09-19T04:03:32;7.45;;;4.78;;
46006;SDS011;31738;50.188;8.524;2023-09-19T04:06:12;7.57;;;5.18;;
46006;SDS011;31738;50.188;8.524;2023-09-19T04:08:41;10.90;;;4.65;;
46006;SDS011;31738;50.188;8.524;2023-09-19T04:11:07;5.88;;;3.72;;
46006;SDS011;31738;50.188;8.524;2023-09-19T04:13:35;5.68;;;3.60;;
46006;SDS011;31738;50.188;8.524;2023-09-19T04:16:03;6.18;;;3.30;;
46006;SDS011;31738;50.188;8.524;2023-09-19T04:18:47;10.68;;;2.90;;
46006;SDS011;31738;50.188;8.524;2023-09-19T04:21:12;5.97;;;2.65;;
46006;SDS011;31738;50.188;8.524;2023-09-19T04:23:38;3.72;;;2.70;;
46006;SDS011;31738;50.188;8.524;2023-09-19T04:26:04;10.77;;;2.55;;
46006;SDS011;31738;50.188;8.524;2023-09-19T04:28:30;7.25;;;2.72;;
46006;SDS011;31738;50.188;8.524;2023-09-19T04:31:00;4.30;;;2.30;;
46006;SDS011;31738;50.188;8.524;2023-09-19T04:33:40;5.95;;;2.30;;
46006;SDS011;31738;50.188;8.524;2023-09-19T04:36:06;6.38;;;2.13;;
46006;SDS011;31738;50.188;8.524;2023-09-19T04:38:32;4.78;;;2.45;;
46006;SDS011;31738;50.188;8.524;2023-09-19T04:40:58;4.75;;;2.75;;
46006;SDS011;31738;50.188;8.524;2023-09-19T04:43:24;6.85;;;2.70;;
46006;SDS011;31738;50.188;8.524;2023-09-19T04:45:51;3.80;;;2.60;;
46006;SDS011;31738;50.188;8.524;2023-09-19T04:48:26;5.40;;;2.78;;
46006;SDS011;31738;50.188;8.524;2023-09-19T04:50:54;7.10;;;2.72;;
46006;SDS011;31738;50.188;8.524;2023-09-19T04:53:46;6.17;;;2.97;;
46006;SDS011;31738;50.188;8.524;2023-09-19T04:56:13;4.68;;;3.00;;
46006;SDS011;31738;50.188;8.524;2023-09-19T04:58:52;4.25;;;3.00;;
46006;SDS011;31738;50.188;8.524;2023-09-19T05:01:22;3.28;;;2.80;;
46006;SDS011;31738;50.188;8.524;2023-09-19T05:03:48;4.40;;;2.60;;
46006;SDS011;31738;50.188;8.524;2023-09-19T05:06:18;12.30;;;3.22;;
46006;SDS011;31738;50.188;8.524;2023-09-19T05:08:47;4.95;;;2.80;;
46006;SDS011;31738;50.188;8.524;2023-09-19T05:11:21;5.75;;;2.60;;
46006;SDS011;31738;50.188;8.524;2023-09-19T05:13:48;5.53;;;2.55;;
46006;SDS011;31738;50.188;8.524;2023-09-19T05:16:24;6.30;;;2.90;;
46006;SDS011;31738;50.188;8.524;2023-09-19T05:18:54;4.97;;;2.45;;
46006;SDS011;31738;50.188;8.524;2023-09-19T05:21:20;4.03;;;2.67;;
46006;SDS011;31738;50.188;8.524;2023-09-19T05:23:45;6.68;;;2.70;;
46006;SDS011;31738;50.188;8.524;2023-09-19T05:26:11;7.13;;;2.53;;
46006;SDS011;31738;50.188;8.524;2023-09-19T05:28:37;3.80;;;2.13;;
46006;SDS011;31738;50.188;8.524;2023-09-19T05:31:03;8.23;;;2.40;;
46006;SDS011;31738;50.188;8.524;2023-09-19T05:33:31;5.40;;;2.60;;
46006;SDS011;31738;50.188;8.524;2023-09-19T05:35:57;5.80;;;2.92;;
46006;SDS011;31738;50.188;8.524;2023-09-19T05:38:31;7.10;;;2.90;;
46006;SDS011;31738;50.188;8.524;2023-09-19T05:40:58;5.00;;;2.83;;
46006;SDS011;31738;50.188;8.524;2023-09-19T05:43:23;5.65;;;2.55;;
46006;SDS011;31738;50.188;8.524;2023-09-19T05:45:49;7.72;;;2.70;;
46006;SDS011;31738;50.188;8.524;2023-09-19T05:48:17;6.88;;;2.53;;
46006;SDS011;31738;50.188;8.524;2023-09-19T05:50:43;3.85;;;2.58;;
46006;SDS011;31738;50.188;8.524;2023-09-19T05:53:12;6.75;;;2.88;;
46006;SDS011;31738;50.188;8.524;2023-09-19T05:55:40;7.15;;;2.72;;
46006;SDS011;31738;50.188;8.524;2023-09-19T05:58:09;4.72;;;2.60;;
46006;SDS011;31738;50.188;8.524;2023-09-19T06:00:35;3.33;;;2.50;;
46006;SDS011;31738;50.188;8.524;2023-09-19T06:03:01;4.40;;;2.70;;
46006;SDS011;31738;50.188;8.524;2023-09-19T06:05:27;4.97;;;2.60;;
46006;SDS011;31738;50.188;8.524;2023-09-19T06:07:55;6.28;;;3.17;;
46006;SDS011;31738;50.188;8.524;2023-09-19T06:10:25;8.20;;;3.22;;
46006;SDS011;31738;50.188;8.524;2023-09-19T06:12:54;8.15;;;3.22;;
46006;SDS011;31738;50.188;8.524;2023-09-19T06:15:23;6.90;;;3.10;;
46006;SDS011;31738;50.188;8.524;2023-09-19T06:17:54;7.38;;;3.20;;
46006;SDS011;31738;50.188;8.524;2023-09-19T06:20:21;7.15;;;3.78;;
46006;SDS011;31738;50.188;8.524;2023-09-19T06:22:48;8.23;;;3.20;;
46006;SDS011;31738;50.188;8.524;2023-09-19T06:25:15;6.82;;;3.28;;
46006;SDS011;31738;50.188;8.524;2023-09-19T06:27:51;6.38;;;3.65;;
46006;SDS011;31738;50.188;8.524;2023-09-19T06:30:19;8.98;;;3.50;;
46006;SDS011;31738;50.188;8.524;2023-09-19T06:32:45;4.38;;;3.58;;
46006;SDS011;31738;50.188;8.524;2023-09-19T06:35:11;8.27;;;3.83;;
46006;SDS011;31738;50.188;8.524;2023-09-19T06:37:38;8.43;;;3.28;;
46006;SDS011;31738;50.188;8.524;2023-09-19T06:42:38;8.18;;;3.20;;
46006;SDS011;31738;50.188;8.524;2023-09-19T06:45:11;6.22;;;2.70;;
46006;SDS011;31738;50.188;8.524;2023-09-19T06:47:44;7.15;;;3.03;;
46006;SDS011;31738;50.188;8.524;2023-09-19T06:50:11;5.32;;;3.03;;
46006;SDS011;31738;50.188;8.524;2023-09-19T06:52:42;6.70;;;3.08;;
46006;SDS011;31738;50.188;8.524;2023-09-19T06:55:08;11.73;;;3.58;;
46006;SDS011;31738;50.188;8.524;2023-09-19T06:57:37;6.05;;;2.80;;
46006;SDS011;31738;50.188;8.524;2023-09-19T07:00:02;7.88;;;3.08;;
46006;SDS011;31738;50.188;8.524;2023-09-19T07:02:34;6.65;;;2.75;;
46006;SDS011;31738;50.188;8.524;2023-09-19T07:04:59;6.00;;;2.75;;
46006;SDS011;31738;50.188;8.524;2023-09-19T07:07:25;6.43;;;2.78;;
46006;SDS011;31738;50.188;8.524;2023-09-19T07:09:50;7.72;;;2.85;;
46006;SDS011;31738;50.188;8.524;2023-09-19T07:12:16;7.13;;;2.97;;
46006;SDS011;31738;50.188;8.524;2023-09-19T07:14:42;6.22;;;2.55;;
46006;SDS011;31738;50.188;8.524;2023-09-19T07:17:07;6.22;;;3.10;;
46006;SDS011;31738;50.188;8.524;2023-09-19T07:19:33;5.90;;;2.60;;
46006;SDS011;31738;50.188;8.524;2023-09-19T07:21:59;5.28;;;2.75;;
46006;SDS011;31738;50.188;8.524;2023-09-19T07:24:27;4.75;;;2.58;;
46006;SDS011;31738;50.188;8.524;2023-09-19T07:26:54;4.22;;;2.45;;
46006;SDS011;31738;50.188;8.524;2023-09-19T07:29:19;4.63;;;2.38;;
46006;SDS011;31738;50.188;8.524;2023-09-19T07:31:51;7.15;;;2.67;;
46006;SDS011;31738;50.188;8.524;2023-09-19T07:34:16;4.40;;;2.42;;
46006;SDS011;31738;50.188;8.524;2023-09-19T07:36:43;8.30;;;3.22;;
46006;SDS011;31738;50.188;8.524;2023-09-19T07:39:09;4.38;;;2.42;;
46006;SDS011;31738;50.188;8.524;2023-09-19T07:41:34;7.63;;;2.97;;
46006;SDS011;31738;50.188;8.524;2023-09-19T07:43:59;5.97;;;2.55;;
46006;SDS011;31738;50.188;8.524;2023-09-19T07:46:26;6.47;;;2.72;;
46006;SDS011;31738;50.188;8.524;2023-09-19T07:48:51;5.90;;;2.35;;
46006;SDS011;31738;50.188;8.524;2023-09-19T07:51:17;6.43;;;2.42;;
46006;SDS011;31738;50.188;8.524;2023-09-19T07:53:42;7.93;;;2.00;;
46006;SDS011;31738;50.188;8.524;2023-09-19T07:56:08;5.57;;;2.35;;
46006;SDS011;31738;50.188;8.524;2023-09-19T07:58:35;6.43;;;2.33;;
46006;SDS011;31738;50.188;8.524;2023-09-19T08:01:05;5.30;;;2.20;;
46006;SDS011;31738;50.188;8.524;2023-09-19T08:03:33;7.50;;;2.33;;
46006;SDS011;31738;50.188;8.524;2023-09-19T08:06:02;5.95;;;2.35;;
46006;SDS011;31738;50.188;8.524;2023-09-19T08:08:28;4.72;;;2.22;;
46006;SDS011;31738;50.188;8.524;2023-09-19T08:10:54;9.52;;;2.45;;
46006;SDS011;31738;50.188;8.524;2023-09-19T08:13:23;6.40;;;2.88;;
46006;SDS011;31738;50.188;8.524;2023-09-19T08:15:49;6.13;;;2.10;;
46006;SDS011;31738;50.188;8.524;2023-09-19T08:18:16;9.05;;;2.20;;
46006;SDS011;31738;50.188;8.524;2023-09-19T08:20:42;3.60;;;1.85;;
46006;SDS011;31738;50.188;8.524;2023-09-19T08:23:08;4.18;;;1.67;;
46006;SDS011;31738;50.188;8.524;2023-09-19T08:25:33;6.40;;;1.85;;
46006;SDS011;31738;50.188;8.524;2023-09-19T08:27:59;5.75;;;2.20;;
46006;SDS011;31738;50.188;8.524;2023-09-19T08:30:27;3.63;;;2.05;;
46006;SDS011;31738;50.188;8.524;2023-09-19T08:32:58;5.00;;;2.03;;
46006;SDS011;31738;50.188;8.524;2023-09-19T08:35:25;4.18;;;2.28;;
46006;SDS011;31738;50.188;8.524;2023-09-19T08:37:50;3.63;;;1.92;;
46006;SDS011;31738;50.188;8.524;2023-09-19T08:40:16;6.50;;;1.70;;
46006;SDS011;31738;50.188;8.524;2023-09-19T08:45:22;6.75;;;2.10;;
46006;SDS011;31738;50.188;8.524;2023-09-19T08:53:19;7.40;;;2.15;;
46006;SDS011;31738;50.188;8.524;2023-09-19T08:55:52;6.60;;;1.65;;
46006;SDS011;31738;50.188;8.524;2023-09-19T08:58:21;7.65;;;1.88;;
46006;SDS011;31738;50.188;8.524;2023-09-19T09:00:54;8.35;;;2.13;;
46006;SDS011;31738;50.188;8.524;2023-09-19T09:03:23;6.78;;;1.80;;
46006;SDS011;31738;50.188;8.524;2023-09-19T09:05:50;4.82;;;1.50;;
46006;SDS011;31738;50.188;8.524;2023-09-19T09:08:17;14.15;;;2.88;;
46006;SDS011;31738;50.188;8.524;2023-09-19T09:10:45;8.48;;;2.30;;
46006;SDS011;31738;50.188;8.524;2023-09-19T09:13:10;4.18;;;1.73;;
46006;SDS011;31738;50.188;8.524;2023-09-19T09:15:39;3.63;;;1.63;;
46006;SDS011;31738;50.188;8.524;2023-09-19T09:18:06;6.43;;;1.60;;
46006;SDS011;31738;50.188;8.524;2023-09-19T09:20:32;2.72;;;1.45;;
46006;SDS011;31738;50.188;8.524;2023-09-19T09:22:57;3.60;;;1.60;;
46006;SDS011;31738;50.188;8.524;2023-09-19T09:25:47;6.18;;;1.85;;
46006;SDS011;31738;50.188;8.524;2023-09-19T09:28:18;12.48;;;2.15;;
46006;SDS011;31738;50.188;8.524;2023-09-19T09:30:45;4.35;;;1.35;;
46006;SDS011;31738;50.188;8.524;2023-09-19T09:33:11;6.38;;;1.83;;
46006;SDS011;31738;50.188;8.524;2023-09-19T09:38:43;3.30;;;1.30;;
46006;SDS011;31738;50.188;8.524;2023-09-19T09:41:11;3.13;;;1.63;;
46006;SDS011;31738;50.188;8.524;2023-09-19T09:43:41;5.50;;;1.55;;
46006;SDS011;31738;50.188;8.524;2023-09-19T09:46:12;3.42;;;1.33;;
46006;SDS011;31738;50.188;8.524;2023-09-19T09:51:39;4.78;;;1.58;;
46006;SDS011;31738;50.188;8.524;2023-09-19T09:54:12;5.30;;;1.88;;
46006;SDS011;31738;50.188;8.524;2023-09-19T09:56:52;6.32;;;1.60;;
46006;SDS011;31738;50.188;8.524;2023-09-19T10:02:14;6.43;;;1.70;;
46006;SDS011;31738;50.188;8.524;2023-09-19T10:04:45;4.53;;;1.70;;
46006;SDS011;31738;50.188;8.524;2023-09-19T10:07:31;4.97;;;2.13;;
46006;SDS011;31738;50.188;8.524;2023-09-19T10:10:06;5.10;;;2.30;;
46006;SDS011;31738;50.188;8.524;2023-09-19T10:12:44;8.15;;;1.75;;
46006;SDS011;31738;50.188;8.524;2023-09-19T10:15:13;6.10;;;2.20;;
46006;SDS011;31738;50.188;8.524;2023-09-19T10:17:42;5.78;;;1.70;;
46006;SDS011;31738;50.188;8.524;2023-09-19T10:20:15;6.55;;;1.90;;
46006;SDS011;31738;50.188;8.524;2023-09-19T10:22:57;5.97;;;1.65;;
46006;SDS011;31738;50.188;8.524;2023-09-19T10:25:27;6.78;;;1.75;;
46006;SDS011;31738;50.188;8.524;2023-09-19T10:27:57;7.57;;;1.73;;
46006;SDS011;31738;50.188;8.524;2023-09-19T10:30:28;5.75;;;1.92;;
46006;SDS011;31738;50.188;8.524;2023-09-19T10:33:03;6.28;;;1.75;;
46006;SDS011;31738;50.188;8.524;2023-09-19T10:35:32;9.13;;;1.92;;
46006;SDS011;31738;50.188;8.524;2023-09-19T10:38:02;6.50;;;1.70;;
46006;SDS011;31738;50.188;8.524;2023-09-19T10:40:29;6.93;;;2.40;;
46006;SDS011;31738;50.188;8.524;2023-09-19T10:43:01;4.97;;;1.60;;
46006;SDS011;31738;50.188;8.524;2023-09-19T10:45:35;9.50;;;1.73;;
46006;SDS011;31738;50.188;8.524;2023-09-19T10:48:04;8.13;;;2.25;;
46006;SDS011;31738;50.188;8.524;2023-09-19T10:50:31;7.07;;;1.90;;
46006;SDS011;31738;50.188;8.524;2023-09-19T10:53:14;5.85;;;1.75;;
46006;SDS011;31738;50.188;8.524;2023-09-19T10:55:48;7.05;;;1.60;;
46006;SDS011;31738;50.188;8.524;2023-09-19T10:58:27;7.63;;;2.00;;
46006;SDS011;31738;50.188;8.524;2023-09-19T11:00:59;5.03;;;1.60;;
46006;SDS011;31738;50.188;8.524;2023-09-19T11:03:30;6.15;;;1.60;;
46006;SDS011;31738;50.188;8.524;2023-09-19T11:06:01;5.32;;;1.90;;
46006;SDS011;31738;50.188;8.524;2023-09-19T11:11:39;6.07;;;1.65;;
46006;SDS011;31738;50.188;8.524;2023-09-19T11:30:32;5.50;;;1.77;;
46006;SDS011;31738;50.188;8.524;2023-09-19T11:44:31;5.95;;;1.40;;
46006;SDS011;31738;50.188;8.524;2023-09-19T11:46:51;6.25;;;1.88;;
46006;SDS011;31738;50.188;8.524;2023-09-19T11:49:19;5.13;;;1.65;;
46006;SDS011;31738;50.188;8.524;2023-09-19T11:51:51;6.90;;;1.80;;
46006;SDS011;31738;50.188;8.524;2023-09-19T11:54:17;7.03;;;1.40;;
46006;SDS011;31738;50.188;8.524;2023-09-19T11:56:44;5.38;;;1.65;;
46006;SDS011;31738;50.188;8.524;2023-09-19T11:59:11;6.70;;;1.77;;
46006;SDS011;31738;50.188;8.524;2023-09-19T12:01:37;6.60;;;1.70;;
46006;SDS011;31738;50.188;8.524;2023-09-19T12:04:11;7.07;;;1.63;;
46006;SDS011;31738;50.188;8.524;2023-09-19T12:06:37;6.30;;;1.42;;
46006;SDS011;31738;50.188;8.524;2023-09-19T12:09:08;8.18;;;1.35;;
46006;SDS011;31738;50.188;8.524;2023-09-19T12:11:42;5.30;;;1.40;;
46006;SDS011;31738;50.188;8.524;2023-09-19T12:14:09;6.53;;;2.10;;
46006;SDS011;31738;50.188;8.524;2023-09-19T12:16:35;5.43;;;1.35;;
46006;SDS011;31738;50.188;8.524;2023-09-19T12:19:17;5.28;;;1.48;;
46006;SDS011;31738;50.188;8.524;2023-09-19T12:21:53;7.55;;;1.80;;
46006;SDS011;31738;50.188;8.524;2023-09-19T12:24:19;7.28;;;1.65;;
46006;SDS011;31738;50.188;8.524;2023-09-19T12:26:45;3.47;;;1.60;;
46006;SDS011;31738;50.188;8.524;2023-09-19T12:29:20;5.07;;;1.60;;
46006;SDS011;31738;50.188;8.524;2023-09-19T12:31:50;6.75;;;2.00;;
46006;SDS011;31738;50.188;8.524;2023-09-19T12:34:19;6.32;;;1.20;;
46006;SDS011;31738;50.188;8.524;2023-09-19T12:36:45;6.95;;;1.90;;
46006;SDS011;31738;50.188;8.524;2023-09-19T12:39:22;6.18;;;1.60;;
46006;SDS011;31738;50.188;8.524;2023-09-19T12:41:48;5.75;;;1.35;;
46006;SDS011;31738;50.188;8.524;2023-09-19T12:44:16;6.20;;;1.33;;
46006;SDS011;31738;50.188;8.524;2023-09-19T12:46:43;4.03;;;1.38;;
46006;SDS011;31738;50.188;8.524;2023-09-19T12:51:48;5.75;;;1.45;;
46006;SDS011;31738;50.188;8.524;2023-09-19T12:54:14;5.15;;;1.48;;
46006;SDS011;31738;50.188;8.524;2023-09-19T12:56:45;4.70;;;1.40;;
46006;SDS011;31738;50.188;8.524;2023-09-19T12:59:14;8.05;;;1.83;;
46006;SDS011;31738;50.188;8.524;2023-09-19T13:01:40;5.15;;;1.13;;
46006;SDS011;31738;50.188;8.524;2023-09-19T13:04:16;6.45;;;1.48;;
46006;SDS011;31738;50.188;8.524;2023-09-19T13:06:50;5.57;;;1.55;;
46006;SDS011;31738;50.188;8.524;2023-09-19T13:09:17;8.63;;;1.63;;
46006;SDS011;31738;50.188;8.524;2023-09-19T13:11:45;5.45;;;1.20;;
46006;SDS011;31738;50.188;8.524;2023-09-19T13:14:14;5.10;;;1.25;;
46006;SDS011;31738;50.188;8.524;2023-09-19T13:16:56;5.18;;;1.27;;
46006;SDS011;31738;50.188;8.524;2023-09-19T13:19:43;8.88;;;1.55;;
46006;SDS011;31738;50.188;8.524;2023-09-19T13:25:14;15.55;;;2.95;;
46006;SDS011;31738;50.188;8.524;2023-09-19T13:27:43;8.32;;;1.77;;
46006;SDS011;31738;50.188;8.524;2023-09-19T13:30:11;3.47;;;1.15;;
46006;SDS011;31738;50.188;8.524;2023-09-19T13:32:37;28.83;;;4.28;;
46006;SDS011;31738;50.188;8.524;2023-09-19T13:35:05;9.90;;;2.22;;
46006;SDS011;31738;50.188;8.524;2023-09-19T13:37:34;22.45;;;4.47;;
46006;SDS011;31738;50.188;8.524;2023-09-19T13:40:13;7.90;;;1.70;;
46006;SDS011;31738;50.188;8.524;2023-09-19T13:42:40;5.60;;;1.50;;
46006;SDS011;31738;50.188;8.524;2023-09-19T13:45:06;5.25;;;1.40;;
46006;SDS011;31738;50.188;8.524;2023-09-19T13:47:33;8.77;;;2.03;;
46006;SDS011;31738;50.188;8.524;2023-09-19T13:50:02;5.57;;;1.55;;
46006;SDS011;31738;50.188;8.524;2023-09-19T13:52:29;4.65;;;1.33;;
46006;SDS011;31738;50.188;8.524;2023-09-19T13:54:56;5.53;;;1.40;;
46006;SDS011;31738;50.188;8.524;2023-09-19T13:57:22;8.45;;;1.63;;
46006;SDS011;31738;50.188;8.524;2023-09-19T13:59:49;4.35;;;1.42;;
46006;SDS011;31738;50.188;8.524;2023-09-19T14:02:14;4.13;;;1.08;;
46006;SDS011;31738;50.188;8.524;2023-09-19T14:04:40;3.63;;;1.65;;
46006;SDS011;31738;50.188;8.524;2023-09-19T14:07:06;2.97;;;1.10;;
46006;SDS011;31738;50.188;8.524;2023-09-19T14:09:32;3.78;;;1.10;;
46006;SDS011;31738;50.188;8.524;2023-09-19T14:11:59;3.63;;;1.08;;
46006;SDS011;31738;50.188;8.524;2023-09-19T14:14:24;4.18;;;0.98;;
46006;SDS011;31738;50.188;8.524;2023-09-19T14:16:50;4.38;;;1.30;;
46006;SDS011;31738;50.188;8.524;2023-09-19T14:19:17;3.63;;;1.15;;
46006;SDS011;31738;50.188;8.524;2023-09-19T14:21:43;5.40;;;1.10;;
46006;SDS011;31738;50.188;8.524;2023-09-19T14:24:09;6.05;;;1.40;;
46006;SDS011;31738;50.188;8.524;2023-09-19T14:26:35;3.97;;;1.15;;
46006;SDS011;31738;50.188;8.524;2023-09-19T14:29:01;4.32;;;1.20;;
46006;SDS011;31738;50.188;8.524;2023-09-19T14:31:27;5.65;;;1.17;;
46006;SDS011;31738;50.188;8.524;2023-09-19T14:33:53;4.57;;;1.30;;
46006;SDS011;31738;50.188;8.524;2023-09-19T14:36:20;4.65;;;1.30;;
46006;SDS011;31738;50.188;8.524;2023-09-19T14:38:47;4.90;;;1.25;;
46006;SDS011;31738;50.188;8.524;2023-09-19T14:41:12;4.10;;;1.17;;
46006;SDS011;31738;50.188;8.524;2023-09-19T14:43:38;7.78;;;1.58;;
46006;SDS011;31738;50.188;8.524;2023-09-19T14:46:04;3.00;;;1.17;;
46006;SDS011;31738;50.188;8.524;2023-09-19T14:48:30;2.90;;;1.05;;
46006;SDS011;31738;50.188;8.524;2023-09-19T14:50:55;3.33;;;0.93;;
46006;SDS011;31738;50.188;8.524;2023-09-19T14:53:27;2.90;;;1.13;;
46006;SDS011;31738;50.188;8.524;2023-09-19T14:55:53;2.60;;;0.90;;
46006;SDS011;31738;50.188;8.524;2023-09-19T14:58:20;3.28;;;1.08;;
46006;SDS011;31738;50.188;8.524;2023-09-19T15:00:46;3.38;;;1.20;;
46006;SDS011;31738;50.188;8.524;2023-09-19T15:03:12;4.22;;;1.02;;
46006;SDS011;31738;50.188;8.524;2023-09-19T15:05:38;7.43;;;1.48;;
46006;SDS011;31738;50.188;8.524;2023-09-19T15:08:04;3.75;;;1.05;;
46006;SDS011;31738;50.188;8.524;2023-09-19T15:10:31;3.70;;;1.20;;
46006;SDS011;31738;50.188;8.524;2023-09-19T15:12:56;6.80;;;1.02;;
46006;SDS011;31738;50.188;8.524;2023-09-19T15:15:22;4.10;;;1.00;;
46006;SDS011;31738;50.188;8.524;2023-09-19T15:17:48;3.35;;;1.05;;
46006;SDS011;31738;50.188;8.524;2023-09-19T15:20:13;2.10;;;0.75;;
46006;SDS011;31738;50.188;8.524;2023-09-19T15:22:39;4.60;;;1.30;;
46006;SDS011;31738;50.188;8.524;2023-09-19T15:25:05;2.25;;;1.15;;
46006;SDS011;31738;50.188;8.524;2023-09-19T15:27:31;3.15;;;0.90;;
46006;SDS011;31738;50.188;8.524;2023-09-19T15:29:58;5.63;;;0.93;;
46006;SDS011;31738;50.188;8.524;2023-09-19T15:32:25;3.92;;;1.30;;
46006;SDS011;31738;50.188;8.524;2023-09-19T15:34:51;5.40;;;1.42;;
46006;SDS011;31738;50.188;8.524;2023-09-19T15:37:17;3.88;;;1.45;;
46006;SDS011;31738;50.188;8.524;2023-09-19T15:39:42;4.60;;;1.10;;
46006;SDS011;31738;50.188;8.524;2023-09-19T15:42:10;2.25;;;1.10;;
46006;SDS011;31738;50.188;8.524;2023-09-19T15:44:36;3.17;;;0.98;;
46006;SDS011;31738;50.188;8.524;2023-09-19T15:47:02;4.70;;;1.10;;
46006;SDS011;31738;50.188;8.524;2023-09-19T15:49:28;2.88;;;0.82;;
46006;SDS011;31738;50.188;8.524;2023-09-19T15:51:54;4.43;;;1.30;;
46006;SDS011;31738;50.188;8.524;2023-09-19T15:54:20;6.50;;;1.88;;
46006;SDS011;31738;50.188;8.524;2023-09-19T15:56:45;3.65;;;1.40;;
46006;SDS011;31738;50.188;8.524;2023-09-19T15:59:12;2.92;;;1.02;;
46006;SDS011;31738;50.188;8.524;2023-09-19T16:01:38;5.65;;;1.05;;
46006;SDS011;31738;50.188;8.524;2023-09-19T16:04:06;3.75;;;1.00;;
46006;SDS011;31738;50.188;8.524;2023-09-19T16:06:34;4.15;;;0.80;;
46006;SDS011;31738;50.188;8.524;2023-09-19T16:09:00;1.38;;;0.77;;
46006;SDS011;31738;50.188;8.524;2023-09-19T16:11:29;3.72;;;1.17;;
46006;SDS011;31738;50.188;8.524;2023-09-19T16:13:57;6.13;;;1.25;;
46006;SDS011;31738;50.188;8.524;2023-09-19T16:16:23;2.33;;;0.85;;
46006;SDS011;31738;50.188;8.524;2023-09-19T16:18:50;4.32;;;1.00;;
46006;SDS011;31738;50.188;8.524;2023-09-19T16:21:17;3.33;;;1.10;;